< < Back
Terminal Aerodrome Forecast


Current Version              Previous Versions:   1  2  3  4  5  6  7  8  9  

Terminal Aerodrome Forecast

707
FTUS44 KHUN 261122
TAFHSV
TAF
KHSV 261122Z 2612/2712 19007KT P6SM OVC040
     FM261800 25010G15KT 6SM -SHRA BR OVC030
     FM270000 35012G17KT 5SM -SHRA BR OVC015
     FM270600 35009KT P6SM SCT007 OVC015=

Latest METAR

365
SAUS80 KWBC 262200
MTRHSV
METAR KHSV 262153Z 33017G24KT 10SM BKN046 OVC060 17/12 A2981 RMK AO2
RAB21E40 PRESRR SLP091 P0000 T01670122


USA.gov is the U.S. government's official web portal to all federal, state and local government web resources and services.